Time;durP1;ratioP1;P1;durP2;ratioP2;P2;SDS_P1;SDS_P2;PMS_P1;PMS_P2;Temp;Humidity;BMP_temperature;BMP_pressure;BME280_temperature;BME280_humidity;BME280_pressure;Samples;Min_cycle;Max_cycle;Signal;HPM_P1;HPM_P2
2022/10/16 00:01:29;;;;;;;;;11.00;10.00;;;;;16.90;56.23;98620.16;4942861;28;104055;-43
2022/10/16 00:03:57;;;;;;;;;14.25;11.25;;;;;16.90;56.73;98611.13;4938105;28;108907;-43
2022/10/16 00:06:25;;;;;;;;;10.00;9.00;;;;;16.88;56.69;98614.13;4943598;28;102234;-44
2022/10/16 00:08:52;;;;;;;;;14.25;13.00;;;;;16.89;56.29;98623.97;4942752;28;102544;-43
2022/10/16 00:11:20;;;;;;;;;14.50;11.75;;;;;16.89;56.81;98626.69;4938155;28;102435;-44
2022/10/16 00:13:47;;;;;;;;;14.50;11.75;;;;;16.89;57.05;98626.69;4946739;28;103498;-43
2022/10/16 00:16:16;;;;;;;;;13.75;11.50;;;;;16.90;56.76;98627.53;4938770;28;102407;-43
2022/10/16 00:18:43;;;;;;;;;14.00;12.00;;;;;16.90;56.73;98627.53;4942202;28;103786;-43
2022/10/16 00:21:20;;;;;;;;;11.75;10.50;;;;;16.90;56.73;98631.09;4947614;28;103819;-44
2022/10/16 00:23:50;;;;;;;;;12.50;11.25;;;;;16.90;56.09;98631.09;4944944;28;104239;-43
2022/10/16 00:26:18;;;;;;;;;13.75;11.75;;;;;16.90;56.38;98633.81;4937326;28;102975;-43
2022/10/16 00:28:46;;;;;;;;;12.00;11.25;;;;;16.89;56.48;98637.63;4943226;28;102494;-44
2022/10/16 00:31:13;;;;;;;;;11.00;11.00;;;;;16.90;56.87;98633.00;4950100;28;102250;-44
2022/10/16 00:33:41;;;;;;;;;11.50;10.50;;;;;16.90;56.58;98633.00;4941356;28;104051;-43
2022/10/16 00:36:10;;;;;;;;;13.00;11.75;;;;;16.89;56.05;98637.63;4945765;28;102608;-43
2022/10/16 00:38:37;;;;;;;;;10.50;10.50;;;;;16.88;56.59;98629.69;4930437;28;102655;-43
2022/10/16 00:41:05;;;;;;;;;13.75;11.75;;;;;16.88;56.33;98635.16;4945930;28;104041;-43
2022/10/16 00:43:38;;;;;;;;;13.00;11.50;;;;;16.88;55.99;98637.88;4939679;28;104255;-43
2022/10/16 00:46:15;;;;;;;;;12.25;11.75;;;;;16.88;56.74;98624.22;4938567;28;102279;-43
2022/10/16 00:48:45;;;;;;;;;10.00;10.00;;;;;16.88;56.87;98630.53;4939412;28;102170;-44
2022/10/16 00:51:12;;;;;;;;;12.00;11.50;;;;;16.87;56.09;98628.03;4941668;28;102571;-43
2022/10/16 00:53:39;;;;;;;;;11.50;10.75;;;;;16.86;57.22;98629.91;4936615;28;104070;-43
2022/10/16 00:56:07;;;;;;;;;13.25;13.25;;;;;16.87;56.55;98637.03;4939075;28;102618;-43
2022/10/16 00:58:34;;;;;;;;;17.50;14.75;;;;;16.86;56.34;98634.53;4940453;28;102303;-43
2022/10/16 01:01:01;;;;;;;;;12.75;11.50;;;;;16.86;56.28;98635.38;4941693;28;102364;-44
2022/10/16 01:03:33;;;;;;;;;15.25;12.00;;;;;16.87;56.69;98633.47;4938286;28;108854;-44
2022/10/16 01:06:57;;;;;;;;;13.00;11.00;;;;;16.87;56.32;98639.78;4936818;28;103995;-44
2022/10/16 01:10:20;;;;;;;;;11.50;11.00;;;;;16.87;56.28;98631.59;4874187;28;103451;-43
2022/10/16 01:13:08;;;;;;;;;13.50;12.75;;;;;16.87;56.30;98628.84;4942001;28;102694;-43
2022/10/16 01:16:23;;;;;;;;;12.50;12.00;;;;;16.87;56.27;98639.78;4942162;28;107731;-43
2022/10/16 01:19:43;;;;;;;;;12.25;11.00;;;;;16.86;57.28;98643.56;4944292;28;102813;-43
2022/10/16 01:22:43;;;;;;;;;12.00;11.00;;;;;16.87;56.28;98652.59;4927985;28;102621;-44
2022/10/16 01:25:35;;;;;;;;;10.50;10.00;;;;;16.86;56.43;98643.56;4948132;28;102133;-43
2022/10/16 01:28:22;;;;;;;;;10.25;10.00;;;;;16.86;56.86;98642.75;4939706;28;109070;-43
2022/10/16 01:30:49;;;;;;;;;13.50;12.00;;;;;16.85;56.33;98644.63;4943431;28;102519;-43
2022/10/16 01:33:29;;;;;;;;;12.50;11.00;;;;;16.85;56.46;98641.91;4942322;28;102524;-43
2022/10/16 01:35:59;;;;;;;;;12.00;12.00;;;;;16.85;56.66;98647.38;4943338;28;102591;-44
2022/10/16 01:38:30;;;;;;;;;13.50;12.25;;;;;16.84;56.05;98640.25;4948453;28;106855;-43
2022/10/16 01:41:02;;;;;;;;;14.25;12.75;;;;;16.84;56.12;98640.25;4948778;28;102392;-43
2022/10/16 01:43:31;;;;;;;;;11.50;10.75;;;;;16.85;57.06;98641.06;4947463;28;102512;-44
2022/10/16 01:45:59;;;;;;;;;13.00;12.00;;;;;16.84;57.10;98640.25;4929854;28;103465;-43
2022/10/16 01:48:26;;;;;;;;;13.00;12.00;;;;;16.82;56.35;98636.09;4943901;28;104302;-44
2022/10/16 01:51:07;;;;;;;;;13.00;11.00;;;;;16.84;56.30;98645.69;4944333;28;102594;-44
2022/10/16 01:53:34;;;;;;;;;12.25;11.75;;;;;16.85;56.70;98643.81;4944175;28;102565;-43
2022/10/16 01:56:01;;;;;;;;;11.00;10.00;;;;;16.85;56.90;98647.38;4949212;28;102975;-43
2022/10/16 01:58:30;;;;;;;;;6.25;4.75;;;;;16.85;57.23;98647.38;4946956;28;108912;-43
2022/10/16 02:00:57;;;;;;;;;12.75;12.00;;;;;16.86;56.06;98649.03;4942737;28;102515;-44
2022/10/16 02:03:24;;;;;;;;;12.00;12.00;;;;;16.86;56.84;98649.03;4948812;28;103737;-43
2022/10/16 02:05:56;;;;;;;;;12.75;12.25;;;;;16.85;56.45;98652.81;4945444;28;102650;-43
2022/10/16 02:08:23;;;;;;;;;18.25;13.50;;;;;16.85;56.39;98644.63;4940976;28;103992;-43
2022/10/16 02:10:50;;;;;;;;;10.50;10.00;;;;;16.84;56.73;98651.16;4927547;28;103540;-43
2022/10/16 02:13:24;;;;;;;;;12.75;12.00;;;;;16.85;56.40;98652.00;4943385;28;102267;-43
2022/10/16 02:15:51;;;;;;;;;13.00;12.75;;;;;16.85;56.62;98660.19;4941089;28;102481;-43
2022/10/16 02:18:18;;;;;;;;;12.00;11.00;;;;;16.84;56.49;98658.56;4941739;28;104104;-43
2022/10/16 02:20:57;;;;;;;;;11.25;11.00;;;;;16.82;56.96;98658.78;4943224;28;102567;-43
2022/10/16 02:23:54;;;;;;;;;11.75;11.00;;;;;16.84;56.69;98658.56;4946326;28;103563;-43
2022/10/16 02:26:53;;;;;;;;;11.25;8.50;;;;;16.83;56.49;98668.63;4937421;28;102717;-43
2022/10/16 02:29:23;;;;;;;;;14.00;12.00;;;;;16.83;56.78;98665.06;4943164;28;109095;-43
2022/10/16 02:31:51;;;;;;;;;11.25;10.50;;;;;16.83;56.68;98665.91;4925051;28;102288;-43
2022/10/16 02:34:18;;;;;;;;;13.00;11.50;;;;;16.84;57.06;98666.75;4924926;28;102667;-44
2022/10/16 02:36:45;;;;;;;;;14.75;12.00;;;;;16.83;56.78;98676.84;4944558;28;102735;-43
2022/10/16 02:39:12;;;;;;;;;12.00;10.75;;;;;16.83;56.51;98665.91;4927994;28;104044;-44
2022/10/16 02:41:39;;;;;;;;;11.75;11.75;;;;;16.83;56.62;98674.09;4939379;28;102631;-43
2022/10/16 02:44:06;;;;;;;;;12.00;12.00;;;;;16.84;55.87;98672.22;4941269;28;102750;-43
2022/10/16 02:46:33;;;;;;;;;14.75;14.00;;;;;16.84;56.88;98666.75;4946194;28;103677;-43
2022/10/16 02:49:00;;;;;;;;;12.50;12.00;;;;;16.83;56.94;98665.91;4949422;28;104364;-44
2022/10/16 02:51:27;;;;;;;;;11.50;11.50;;;;;16.85;56.23;98657.47;4947990;28;103302;-44
2022/10/16 02:53:55;;;;;;;;;13.25;11.75;;;;;16.84;56.81;98667.53;4941823;28;102584;-44
2022/10/16 02:56:22;;;;;;;;;12.50;12.25;;;;;16.84;56.70;98661.28;4944453;28;102413;-43
2022/10/16 02:58:49;;;;;;;;;11.25;9.50;;;;;16.83;56.78;98659.63;4938146;28;104216;-43
2022/10/16 03:01:16;;;;;;;;;11.00;10.50;;;;;16.82;56.77;98658.78;4945007;28;102634;-43
2022/10/16 03:03:43;;;;;;;;;12.00;11.25;;;;;16.82;56.19;98663.41;4949696;28;102466;-43
2022/10/16 03:06:10;;;;;;;;;13.75;13.00;;;;;16.81;56.85;98659.84;4950785;28;102664;-43
2022/10/16 03:08:37;;;;;;;;;8.00;7.25;;;;;16.81;56.59;98662.56;4944621;28;105794;-44
2022/10/16 03:11:04;;;;;;;;;11.75;11.25;;;;;16.82;56.47;98671.59;4940247;28;102545;-43
2022/10/16 03:13:31;;;;;;;;;12.00;11.25;;;;;16.81;56.19;98673.50;4948201;28;103285;-44
2022/10/16 03:15:58;;;;;;;;;12.75;12.00;;;;;16.81;56.18;98675.41;4943898;28;102649;-43
2022/10/16 03:18:25;;;;;;;;;12.00;11.00;;;;;16.79;57.02;98678.38;4948259;28;104079;-43
2022/10/16 03:20:52;;;;;;;;;11.75;11.00;;;;;16.78;56.61;98684.06;4945285;28;104444;-43
2022/10/16 03:23:19;;;;;;;;;10.75;10.50;;;;;16.79;56.95;98685.75;4943402;28;102418;-44
2022/10/16 03:25:46;;;;;;;;;12.75;11.75;;;;;16.79;56.63;98686.56;4945331;28;103266;-43
2022/10/16 03:28:14;;;;;;;;;11.50;11.50;;;;;16.80;56.76;98693.69;4945435;28;104085;-43
2022/10/16 03:30:41;;;;;;;;;11.50;11.50;;;;;16.79;56.03;98692.03;4945185;28;102699;-43
2022/10/16 03:33:08;;;;;;;;;11.25;11.25;;;;;16.80;56.83;98699.13;4947294;28;102559;-43
2022/10/16 03:35:35;;;;;;;;;11.50;11.00;;;;;16.81;56.49;98698.06;4946521;28;102271;-43
2022/10/16 03:38:02;;;;;;;;;15.25;14.50;;;;;16.80;56.10;98699.13;4949704;28;104473;-43
2022/10/16 03:40:31;;;;;;;;;14.00;13.00;;;;;16.80;56.53;98693.69;4946194;28;102552;-43
2022/10/16 03:42:59;;;;;;;;;11.25;11.00;;;;;16.80;56.35;98693.69;4945898;28;102200;-43
2022/10/16 03:45:27;;;;;;;;;12.50;11.25;;;;;16.79;56.70;98689.31;4943493;28;102351;-43
2022/10/16 03:47:54;;;;;;;;;14.00;12.00;;;;;16.79;56.79;98699.41;4935845;28;104120;-43
2022/10/16 03:50:21;;;;;;;;;12.25;11.00;;;;;16.78;57.21;98712.22;4946510;28;102160;-43
2022/10/16 03:52:48;;;;;;;;;10.25;9.00;;;;;16.78;56.75;98705.91;4951276;28;102472;-43
2022/10/16 03:55:15;;;;;;;;;12.00;11.25;;;;;16.77;56.13;98707.81;4943252;28;102630;-43
2022/10/16 03:57:42;;;;;;;;;10.00;10.00;;;;;16.74;56.46;98702.84;4940780;28;104049;-43
2022/10/16 04:00:09;;;;;;;;;10.75;10.75;;;;;16.76;56.31;98708.88;4942749;28;102184;-43
2022/10/16 04:02:36;;;;;;;;;11.50;11.50;;;;;16.74;56.80;98702.00;4943153;28;102732;-43
2022/10/16 04:05:04;;;;;;;;;12.50;11.00;;;;;16.75;56.17;98709.94;4944260;28;102513;-43
2022/10/16 04:07:31;;;;;;;;;13.25;11.50;;;;;16.74;56.69;98705.56;4943876;28;104079;-44
2022/10/16 04:09:58;;;;;;;;;13.50;13.25;;;;;16.72;56.86;98704.97;4947942;28;103078;-43
2022/10/16 04:12:26;;;;;;;;;12.50;11.75;;;;;16.72;57.04;98707.69;4940730;28;102957;-43
2022/10/16 04:14:53;;;;;;;;;11.00;10.50;;;;;16.73;57.00;98705.81;4943660;28;102598;-43
2022/10/16 04:17:20;;;;;;;;;10.50;10.50;;;;;16.72;56.86;98710.44;4946207;28;104206;-43
2022/10/16 04:19:47;;;;;;;;;12.75;11.00;;;;;16.69;57.09;98708.19;4940751;28;102519;-43
2022/10/16 04:22:14;;;;;;;;;11.25;10.75;;;;;16.72;57.01;98704.97;4948666;28;103455;-43
2022/10/16 04:24:41;;;;;;;;;12.50;10.75;;;;;16.72;56.38;98713.16;4944925;28;102512;-43
2022/10/16 04:27:08;;;;;;;;;11.00;11.00;;;;;16.71;56.18;98711.50;4945777;28;104272;-43
2022/10/16 04:29:35;;;;;;;;;11.00;11.00;;;;;16.72;56.21;98715.88;4938813;28;102533;-43
2022/10/16 04:32:02;;;;;;;;;13.00;11.25;;;;;16.71;56.31;98719.69;4942390;28;102569;-43
2022/10/16 04:34:29;;;;;;;;;10.75;10.50;;;;;16.72;56.78;98713.16;4938163;28;103410;-43
2022/10/16 04:36:56;;;;;;;;;10.00;9.50;;;;;16.72;56.60;98712.31;4942703;28;103863;-43
2022/10/16 04:39:23;;;;;;;;;12.50;11.00;;;;;16.71;56.36;98711.50;4942520;28;102566;-43
2022/10/16 04:41:50;;;;;;;;;12.00;11.50;;;;;16.71;57.22;98707.94;4945023;28;103773;-43
2022/10/16 04:44:17;;;;;;;;;14.00;12.25;;;;;16.70;56.80;98709.84;4944134;28;103207;-43
2022/10/16 04:46:44;;;;;;;;;13.00;12.00;;;;;16.69;56.79;98710.91;4937857;28;104106;-43
2022/10/16 04:49:11;;;;;;;;;15.00;13.00;;;;;16.69;56.25;98707.34;4938778;28;102199;-43
2022/10/16 04:51:38;;;;;;;;;11.25;11.25;;;;;16.67;56.51;98702.13;4947806;28;102312;-43
2022/10/16 04:54:05;;;;;;;;;13.00;11.25;;;;;16.67;56.79;98702.13;4950356;28;102601;-43
2022/10/16 04:56:32;;;;;;;;;13.00;12.00;;;;;16.66;56.24;98708.63;4942124;28;104061;-43
2022/10/16 04:58:59;;;;;;;;;11.25;11.00;;;;;16.65;56.19;98709.72;4949536;28;102385;-43
2022/10/16 05:01:26;;;;;;;;;11.00;11.00;;;;;16.67;56.50;98717.66;4941631;28;102430;-43
2022/10/16 05:03:53;;;;;;;;;16.50;15.00;;;;;16.65;56.97;98717.09;4953240;28;102507;-43
2022/10/16 05:06:20;;;;;;;;;12.75;10.25;;;;;16.65;56.39;98717.91;4949710;28;104100;-43
2022/10/16 05:08:47;;;;;;;;;14.75;13.25;;;;;16.67;56.69;98718.50;4943280;28;102508;-43
2022/10/16 05:11:14;;;;;;;;;14.00;11.25;;;;;16.66;56.23;98725.03;4949649;28;102263;-43
2022/10/16 05:13:41;;;;;;;;;13.75;12.25;;;;;16.66;56.50;98729.69;4943557;28;102907;-43
2022/10/16 05:16:08;;;;;;;;;12.50;11.75;;;;;16.66;57.32;98727.75;4940063;28;104351;-43
2022/10/16 05:18:36;;;;;;;;;10.50;9.25;;;;;16.66;56.89;98724.22;4945852;28;102491;-43
2022/10/16 05:21:03;;;;;;;;;12.00;12.00;;;;;16.66;56.49;98724.22;4948128;28;102537;-43
2022/10/16 05:23:30;;;;;;;;;12.25;10.00;;;;;16.65;56.55;98733.47;4952137;28;102232;-43
2022/10/16 05:25:58;;;;;;;;;12.50;11.25;;;;;16.64;56.49;98729.91;4946229;28;104101;-43
2022/10/16 05:28:26;;;;;;;;;12.25;11.75;;;;;16.64;56.34;98746.28;4947905;28;102213;-43
2022/10/16 05:30:53;;;;;;;;;13.00;12.00;;;;;16.64;57.15;98748.19;4942710;28;102280;-43
2022/10/16 05:33:24;;;;;;;;;11.50;11.50;;;;;16.64;57.23;98742.72;4951086;28;103340;-43
2022/10/16 05:35:51;;;;;;;;;11.75;11.00;;;;;16.63;56.43;98744.63;4947560;28;104045;-43
2022/10/16 05:38:18;;;;;;;;;11.75;10.75;;;;;16.64;56.50;98738.09;4952177;28;102235;-44
2022/10/16 05:40:56;;;;;;;;;9.00;9.00;;;;;16.64;56.54;98750.91;4949022;28;102283;-43
2022/10/16 05:43:23;;;;;;;;;15.75;13.75;;;;;16.63;57.06;98752.81;4944157;28;103771;-43
2022/10/16 05:46:04;;;;;;;;;13.25;13.00;;;;;16.60;56.83;98756.00;4945416;28;104190;-43
2022/10/16 05:48:31;;;;;;;;;12.00;11.00;;;;;16.59;56.00;98762.53;4946305;28;102316;-44
2022/10/16 05:50:59;;;;;;;;;13.75;13.00;;;;;16.62;56.84;98767.50;4940034;28;110632;-43
2022/10/16 05:53:32;;;;;;;;;16.25;14.00;;;;;16.62;56.67;98778.44;4948876;28;104032;-43
2022/10/16 05:56:00;;;;;;;;;14.75;13.50;;;;;16.61;57.03;98782.25;4949282;28;108822;-43
2022/10/16 05:58:32;;;;;;;;;13.25;13.25;;;;;16.62;57.29;98786.63;4940934;28;102367;-43
2022/10/16 06:01:04;;;;;;;;;11.25;10.25;;;;;16.64;56.20;98787.25;4943203;28;102590;-43
2022/10/16 06:03:31;;;;;;;;;13.25;11.50;;;;;16.63;56.35;98788.28;4943267;28;102663;-44
2022/10/16 06:05:58;;;;;;;;;14.00;12.50;;;;;16.64;56.77;98789.97;4941448;28;104139;-43
2022/10/16 06:08:25;;;;;;;;;12.75;11.75;;;;;16.63;57.17;98791.03;4941952;28;102275;-44
2022/10/16 06:11:02;;;;;;;;;13.50;13.50;;;;;16.64;57.28;98797.31;4945339;28;103781;-43
2022/10/16 06:13:29;;;;;;;;;12.25;11.50;;;;;16.64;56.18;98803.63;4945606;28;102642;-43
2022/10/16 06:15:59;;;;;;;;;11.75;10.25;;;;;16.65;57.12;98796.25;4937013;28;104266;-44
2022/10/16 06:18:27;;;;;;;;;13.00;13.00;;;;;16.65;56.26;98807.19;4937747;28;102940;-43
2022/10/16 06:20:54;;;;;;;;;14.00;13.00;;;;;16.65;56.62;98804.47;4938984;28;102131;-43
2022/10/16 06:23:22;;;;;;;;;13.00;12.00;;;;;16.67;56.42;98807.75;4948079;28;102403;-43
2022/10/16 06:25:49;;;;;;;;;14.00;13.00;;;;;16.67;56.23;98811.34;4945074;28;104069;-43
2022/10/16 06:28:16;;;;;;;;;12.25;11.00;;;;;16.68;56.38;98815.72;4947510;28;102455;-43
2022/10/16 06:30:45;;;;;;;;;10.25;10.25;;;;;16.68;56.82;98809.44;4946518;28;102253;-43
2022/10/16 06:33:13;;;;;;;;;14.50;12.00;;;;;16.68;56.90;98829.38;4944002;28;102310;-43
2022/10/16 06:35:40;;;;;;;;;15.00;14.00;;;;;16.68;56.47;98829.38;4943374;28;104051;-43
2022/10/16 06:38:07;;;;;;;;;12.75;12.50;;;;;16.68;56.00;98832.13;4949562;28;102568;-43
2022/10/16 06:40:34;;;;;;;;;14.25;12.50;;;;;16.67;56.31;98833.19;4948105;28;102477;-43
2022/10/16 06:43:01;;;;;;;;;13.75;12.50;;;;;16.67;56.63;98832.34;4952304;28;102288;-44
2022/10/16 06:45:28;;;;;;;;;13.00;12.75;;;;;16.66;56.02;98823.31;4945181;28;104237;-43
2022/10/16 06:47:55;;;;;;;;;14.00;13.00;;;;;16.68;56.35;98836.75;4944653;28;102344;-43
2022/10/16 06:50:22;;;;;;;;;13.25;11.50;;;;;16.69;56.00;98838.41;4942618;28;102597;-44
2022/10/16 06:52:49;;;;;;;;;12.75;11.75;;;;;16.68;55.86;98845.78;4948122;28;103627;-43
2022/10/16 06:55:16;;;;;;;;;16.00;13.50;;;;;16.68;56.24;98843.03;4946990;28;103826;-43
2022/10/16 06:57:43;;;;;;;;;13.50;13.25;;;;;16.70;55.51;98851.84;4941590;28;109777;-44
2022/10/16 07:00:11;;;;;;;;;16.00;13.00;;;;;16.72;55.99;98843.41;4948216;28;103796;-43
2022/10/16 07:02:38;;;;;;;;;14.50;13.00;;;;;16.73;56.63;98845.06;4944910;28;102262;-43
2022/10/16 07:05:06;;;;;;;;;15.25;14.00;;;;;16.73;55.99;98843.16;4942700;28;104073;-44
2022/10/16 07:07:33;;;;;;;;;11.75;11.50;;;;;16.74;55.34;98841.28;4946553;28;103535;-43
2022/10/16 07:10:00;;;;;;;;;11.75;10.75;;;;;16.75;56.02;98849.22;4947969;28;102355;-43
2022/10/16 07:12:27;;;;;;;;;11.00;10.75;;;;;16.75;55.57;98842.94;4942696;28;102690;-43
2022/10/16 07:14:56;;;;;;;;;14.75;14.00;;;;;16.75;55.68;98848.41;4946069;28;104300;-43
2022/10/16 07:17:23;;;;;;;;;12.50;12.00;;;;;16.76;56.49;98848.16;4940101;28;103194;-43
2022/10/16 07:19:52;;;;;;;;;18.00;12.50;;;;;16.78;55.95;98850.66;4940425;28;102497;-43
2022/10/16 07:22:19;;;;;;;;;13.75;11.75;;;;;16.77;55.92;98847.09;4942108;28;102452;-43
2022/10/16 07:24:46;;;;;;;;;14.25;14.25;;;;;16.76;55.69;98850.88;4938446;28;104363;-43
2022/10/16 07:27:18;;;;;;;;;16.50;13.75;;;;;16.77;55.45;98847.09;4942112;28;102313;-43
2022/10/16 07:29:45;;;;;;;;;15.25;14.00;;;;;16.77;56.10;98847.09;4944527;28;103497;-43
2022/10/16 07:32:12;;;;;;;;;17.00;15.50;;;;;16.77;55.73;98849.81;4943888;28;102655;-43
2022/10/16 07:34:39;;;;;;;;;10.50;10.25;;;;;16.77;56.31;98863.47;4944956;28;104115;-43
2022/10/16 07:37:06;;;;;;;;;14.50;12.50;;;;;16.77;55.27;98855.28;4939544;28;102241;-43
2022/10/16 07:39:33;;;;;;;;;7.00;6.25;;;;;16.77;56.50;98858.00;4948023;28;102385;-43
2022/10/16 07:42:00;;;;;;;;;12.00;12.00;;;;;16.77;56.03;98848.97;4946311;28;102510;-43
2022/10/16 07:44:27;;;;;;;;;12.25;12.00;;;;;16.78;55.57;98867.88;4943340;28;104071;-43
2022/10/16 07:46:54;;;;;;;;;15.75;13.25;;;;;16.77;56.04;98868.94;4944597;28;105322;-43
2022/10/16 07:49:21;;;;;;;;;13.50;12.00;;;;;16.79;55.36;98872.28;4944448;28;102482;-43
2022/10/16 07:51:48;;;;;;;;;11.50;10.25;;;;;16.81;55.67;98875.59;4943700;28;102219;-43
2022/10/16 07:54:15;;;;;;;;;13.75;12.50;;;;;16.82;55.29;98876.44;4949278;28;104234;-43
2022/10/16 07:56:42;;;;;;;;;13.00;11.25;;;;;16.83;55.66;98869.91;4941747;28;102232;-44
2022/10/16 07:59:10;;;;;;;;;12.00;10.75;;;;;16.83;55.76;98870.75;4945157;28;102525;-43
2022/10/16 08:01:37;;;;;;;;;10.00;8.50;;;;;16.84;56.14;98869.66;4945252;28;102640;-44
2022/10/16 08:04:05;;;;;;;;;15.75;11.75;;;;;16.85;56.33;98868.59;4945661;28;104234;-43
2022/10/16 08:06:35;;;;;;;;;16.00;14.00;;;;;16.86;55.59;98883.91;4951735;28;102454;-43
2022/10/16 08:09:02;;;;;;;;;16.00;12.50;;;;;16.87;56.04;98885.59;4940871;28;102529;-43
2022/10/16 08:11:30;;;;;;;;;13.25;12.75;;;;;16.87;55.06;98885.59;4948420;28;102405;-43
2022/10/16 08:13:58;;;;;;;;;14.75;13.00;;;;;16.87;55.93;98879.28;4951310;28;103546;-43
2022/10/16 08:16:25;;;;;;;;;13.00;13.00;;;;;16.87;55.93;98880.13;4955684;28;102584;-43
2022/10/16 08:18:53;;;;;;;;;13.00;12.50;;;;;16.88;56.09;98883.69;4937799;28;102333;-44
2022/10/16 08:21:22;;;;;;;;;14.00;12.25;;;;;16.89;55.99;98888.06;4946281;28;102537;-43
2022/10/16 08:23:50;;;;;;;;;13.00;11.75;;;;;16.88;56.00;98886.44;4941056;28;104204;-43
2022/10/16 08:26:25;;;;;;;;;11.75;11.75;;;;;16.88;55.83;98881.81;4937595;28;102373;-43
2022/10/16 08:28:53;;;;;;;;;13.00;12.75;;;;;16.89;55.70;98894.38;4938310;28;102667;-43
2022/10/16 08:31:22;;;;;;;;;17.00;12.00;;;;;16.90;55.45;98884.28;4950779;28;103554;-43
2022/10/16 08:33:51;;;;;;;;;14.50;12.00;;;;;16.91;54.93;98885.94;4942868;28;103051;-43
2022/10/16 08:36:19;;;;;;;;;13.75;12.25;;;;;16.91;56.11;98888.69;4942328;28;103132;-43
2022/10/16 08:38:50;;;;;;;;;11.50;11.50;;;;;16.90;56.27;98893.31;4947763;28;102417;-43
2022/10/16 08:41:47;;;;;;;;;14.00;12.75;;;;;16.91;55.32;98894.97;4946948;28;102524;-43
2022/10/16 08:44:29;;;;;;;;;10.50;10.00;;;;;16.92;55.39;98893.09;4942879;28;107815;-43
2022/10/16 08:46:56;;;;;;;;;13.25;12.25;;;;;16.93;55.19;98909.22;4933017;28;102882;-44
2022/10/16 08:49:26;;;;;;;;;11.50;11.50;;;;;16.92;56.24;98887.63;4938194;28;103087;-43
2022/10/16 08:51:54;;;;;;;;;10.00;10.00;;;;;16.93;55.28;98901.03;4941473;28;102890;-43
2022/10/16 08:54:27;;;;;;;;;11.25;10.25;;;;;16.93;55.36;98901.03;4928547;28;104176;-44
2022/10/16 08:56:56;;;;;;;;;12.25;11.00;;;;;16.95;55.77;98898.91;4939641;28;102774;-43
2022/10/16 08:59:23;;;;;;;;;12.00;12.00;;;;;16.94;55.85;98899.97;4938105;28;103833;-43
2022/10/16 09:01:51;;;;;;;;;12.25;12.00;;;;;16.94;55.81;98899.97;4947968;28;102140;-43
2022/10/16 09:04:46;;;;;;;;;11.75;11.00;;;;;16.94;55.03;98902.69;4936261;28;104200;-43
2022/10/16 09:47:54;;;;;;;;;15.50;13.00;;;;;17.03;56.12;98921.47;4369136;27;107376;-65
2022/10/16 09:51:26;;;;;;;;;15.25;13.50;;;;;17.05;56.20;98935.75;4482723;29;103439;-61
2022/10/16 09:54:56;;;;;;;;;14.00;12.00;;;;;17.04;56.51;98925.88;4554501;29;101930;-60
2022/10/16 09:58:34;;;;;;;;;16.00;12.00;;;;;17.06;57.13;98931.94;4498544;29;108711;-58
2022/10/16 10:02:15;;;;;;;;;14.00;13.00;;;;;17.07;56.79;98922.66;4558754;29;109091;-60
2022/10/16 10:05:46;;;;;;;;;12.00;11.25;;;;;17.09;56.94;98931.47;4513988;29;103629;-66
2022/10/16 10:09:21;;;;;;;;;13.00;12.75;;;;;17.09;57.38;98936.94;4463368;29;103564;-63
2022/10/16 10:12:51;;;;;;;;;11.00;11.00;;;;;17.10;56.53;98917.59;4520286;29;103508;-62
2022/10/16 10:16:20;;;;;;;;;12.25;11.25;;;;;17.12;56.97;98922.78;4523394;29;107744;-62
2022/10/16 10:20:00;;;;;;;;;15.00;12.00;;;;;17.14;56.94;98923.41;4441777;29;102401;-59
2022/10/16 10:23:33;;;;;;;;;11.50;11.00;;;;;17.14;57.58;98924.25;4404645;29;102316;-64
2022/10/16 10:26:50;;;;;;;;;14.75;12.00;;;;;17.15;56.60;98925.06;4455649;29;103322;-66
2022/10/16 10:30:23;;;;;;;;;12.25;11.00;;;;;17.17;56.71;98922.94;4476445;29;108441;-59
2022/10/16 10:34:12;;;;;;;;;12.50;11.75;;;;;17.16;57.98;98933.03;4577521;29;102545;-61
2022/10/16 10:37:41;;;;;;;;;11.00;10.00;;;;;17.16;57.01;98930.28;4459768;29;103796;-67
2022/10/16 10:41:25;;;;;;;;;12.75;11.00;;;;;17.17;57.24;98931.97;4504805;29;103732;-63
2022/10/16 10:44:57;;;;;;;;;12.00;12.00;;;;;17.17;57.01;98945.63;4523562;29;108568;-59
2022/10/16 10:48:24;;;;;;;;;16.25;13.00;;;;;17.18;57.29;98941.81;4491817;29;103559;-62
2022/10/16 10:52:06;;;;;;;;;14.00;13.00;;;;;17.18;57.76;98938.25;4646948;29;102525;-65
2022/10/16 10:55:53;;;;;;;;;13.50;13.00;;;;;17.19;57.47;98934.47;4588770;29;102559;-61
2022/10/16 10:59:34;;;;;;;;;12.75;11.00;;;;;17.20;57.70;98930.69;4494995;29;107950;-61
2022/10/16 11:03:18;;;;;;;;;16.50;14.00;;;;;17.21;57.60;98926.84;4414141;29;102646;-62
2022/10/16 11:06:30;;;;;;;;;13.00;12.00;;;;;17.20;57.95;98917.00;5033454;27;102726;-43
2022/10/16 11:09:20;;;;;;;;;11.25;11.00;;;;;17.22;58.65;98909.38;4993406;27;102754;-43
2022/10/16 11:11:56;;;;;;;;;10.75;10.00;;;;;17.23;57.90;98928.28;5012257;27;107761;-43
2022/10/16 11:14:31;;;;;;;;;11.75;11.00;;;;;17.24;58.20;98926.41;5005114;27;102127;-43
2022/10/16 11:17:02;;;;;;;;;12.50;11.75;;;;;17.26;58.23;98922.34;4994264;27;102961;-43
2022/10/16 11:19:54;;;;;;;;;12.75;10.00;;;;;17.26;57.47;98922.34;4995202;27;102529;-43
2022/10/16 11:22:36;;;;;;;;;9.25;9.25;;;;;17.28;57.24;98914.75;5001666;27;108889;-44
2022/10/16 11:25:17;;;;;;;;;11.50;11.00;;;;;17.30;57.73;98919.97;5009667;27;102331;-44
2022/10/16 11:27:55;;;;;;;;;12.00;10.50;;;;;17.32;57.71;98920.56;5009461;27;102310;-43
2022/10/16 11:30:25;;;;;;;;;12.25;12.25;;;;;17.31;57.34;98917.00;5006494;27;102385;-44
2022/10/16 11:33:10;;;;;;;;;11.75;10.00;;;;;17.33;56.74;98922.25;5016690;27;104005;-43
2022/10/16 11:35:37;;;;;;;;;10.50;9.50;;;;;17.33;57.38;98922.25;5023126;27;102455;-44
2022/10/16 11:38:07;;;;;;;;;13.50;11.75;;;;;17.34;57.23;98923.88;5016239;27;102517;-43
2022/10/16 11:40:34;;;;;;;;;12.25;11.50;;;;;17.36;57.33;98928.06;4987313;27;102471;-42
2022/10/16 11:43:13;;;;;;;;;10.75;10.75;;;;;17.37;57.67;98923.44;4985212;27;104058;-42
2022/10/16 11:45:40;;;;;;;;;13.00;12.25;;;;;17.36;57.13;98929.97;5014496;27;103000;-42
2022/10/16 11:48:44;;;;;;;;;13.00;12.00;;;;;17.38;57.04;98925.09;4996729;27;103813;-42
2022/10/16 11:51:17;;;;;;;;;11.25;10.00;;;;;17.40;58.01;98928.41;5007409;27;102478;-42
2022/10/16 11:53:53;;;;;;;;;10.00;9.00;;;;;17.41;57.13;98924.63;4990556;27;104049;-42
2022/10/16 11:56:20;;;;;;;;;10.50;10.00;;;;;17.42;56.88;98931.75;4997489;27;102603;-42
2022/10/16 11:59:20;;;;;;;;;12.25;12.00;;;;;17.44;56.69;98935.06;5025287;27;102735;-42
2022/10/16 12:01:58;;;;;;;;;12.25;10.50;;;;;17.44;56.91;98918.66;5009082;27;104476;-42
2022/10/16 12:04:45;;;;;;;;;14.00;12.75;;;;;17.47;57.33;98923.66;5009871;27;104360;-42
2022/10/16 12:07:14;;;;;;;;;13.00;12.00;;;;;17.50;57.38;98934.13;4995656;27;102590;-42
2022/10/16 12:09:41;;;;;;;;;16.75;15.25;;;;;17.53;57.29;98930.91;5002110;27;102528;-43
2022/10/16 12:12:28;;;;;;;;;12.75;12.75;;;;;17.55;57.41;98939.72;5009103;27;102452;-43
2022/10/16 12:15:18;;;;;;;;;13.50;12.25;;;;;17.56;57.17;98927.69;5006121;27;104022;-42
2022/10/16 12:18:00;;;;;;;;;13.50;12.50;;;;;17.59;57.33;98935.47;4986066;27;102435;-42
2022/10/16 12:20:32;;;;;;;;;14.50;12.00;;;;;17.60;57.39;98931.69;4995572;27;102999;-42
2022/10/16 12:23:05;;;;;;;;;10.50;10.50;;;;;17.64;57.25;98934.75;4972208;28;102421;-42
2022/10/16 12:25:34;;;;;;;;;10.00;10.00;;;;;17.64;57.45;98935.59;4991260;27;108573;-42
2022/10/16 12:28:03;;;;;;;;;15.00;12.50;;;;;17.66;56.88;98933.44;4982454;27;102450;-42
2022/10/16 12:30:35;;;;;;;;;14.50;12.75;;;;;17.67;57.47;98937.84;4998004;27;102412;-43